Portada
METAR-TAF:

METAR-TAF

Aeropuertos :

Aeropuerto de Vigo

Vigo, España

latitud: 42-13N, longitud: 008-38W, altitud: 264 m

Observación

El informe se hizo hace 13 minutos, a las 13:00 UTC
Viento 3 kt del sur, variando entre este y oeste-suroeste
Temperatura 13°C
Humedad 51%
Presión 1033 hPa
Visibilidad 10 km o más
sin nubes por debajo de 1500 m y sin presencia de cumulonimbus.

METAR: LEVX 031300Z 17003KT 080V250 CAVOK 13/03 Q1033 NOSIG

Hora: 14:13 (13:13 UTC)

Pronóstico

El informe se hizo hace 2 horas y 13 minutos, a las 11:00 UTC
Pronóstico válido del 03 a las 12 UTC al 04 a las 12 UTC
Viento 6 kt del suroeste
Visibilidad 10 km o más
sin nubes por debajo de 1500 m y sin presencia de cumulonimbus.
Probabilidad 30% :
Temporalmente
del 03 a las 14 UTC al 03 a las 19 UTC
Viento 10 kt del oeste

TAF: LEVX 031100Z 0312/0412 22006KT CAVOK TX16/0315Z TN02/0407Z PROB30 TEMPO 0314/0319 28010KT

Observaciones y pronósticos meteorológicos de más de 4000 aeropuertos (mensajes METAR y TAF).

Los puntos amarillos y rojos representan las estaciones disponibles.

Ponga el ratón en el punto deseado para ver el nombre de la estación.

Haga clic para ver las observaciones y los pronósticos meteorológicos.

Para cambiar el mapa : haga clic en los botones verdes con una cruz de color negro para hacer un zoom, en el botón verde con un guión para alejar o en las flechas verdes para mapas adyacentes.


METAR-TAF: